createdAt,value
2024-01-20T00:00:14.613Z,52.77
2024-01-20T00:01:14.720Z,53.47
2024-01-20T00:02:14.721Z,51.23
2024-01-20T00:03:14.626Z,51.77
2024-01-20T00:04:14.699Z,52.47
2024-01-20T00:05:14.672Z,53.29
2024-01-20T00:06:14.631Z,52.71
2024-01-20T00:07:14.644Z,52.52
2024-01-20T00:08:14.655Z,52.95
2024-01-20T00:09:14.620Z,51.75
2024-01-20T00:10:14.754Z,53.49
2024-01-20T00:11:14.650Z,52.72
2024-01-20T00:12:14.636Z,50.00
2024-01-20T00:13:14.648Z,51.95
2024-01-20T00:14:14.684Z,52.80
2024-01-20T00:15:14.629Z,53.94
2024-01-20T00:16:14.648Z,53.95
2024-01-20T00:17:23.365Z,51.71
2024-01-20T00:18:15.770Z,51.89
2024-01-20T00:19:14.749Z,51.93
2024-01-20T00:20:14.728Z,52.04
2024-01-20T00:21:14.613Z,51.55
2024-01-20T00:22:14.661Z,53.69
2024-01-20T00:23:14.690Z,53.95
2024-01-20T00:24:14.628Z,52.92
2024-01-20T00:25:14.644Z,50.89
2024-01-20T00:26:14.695Z,51.47
2024-01-20T00:27:14.641Z,51.79
2024-01-20T00:28:14.634Z,54.49
2024-01-20T00:29:14.688Z,52.97
2024-01-20T00:30:14.643Z,52.70
2024-01-20T00:31:14.625Z,50.94
2024-01-20T00:32:14.719Z,50.75
2024-01-20T00:33:14.786Z,51.62
2024-01-20T00:34:14.680Z,52.61
2024-01-20T00:35:14.705Z,51.13
2024-01-20T00:36:14.644Z,53.24
2024-01-20T00:37:14.665Z,51.94
2024-01-20T00:38:14.741Z,52.63
2024-01-20T00:39:14.654Z,51.06
2024-01-20T00:40:14.648Z,53.02
2024-01-20T00:41:15.356Z,53.76
2024-01-20T00:42:14.667Z,53.61
2024-01-20T00:43:14.666Z,54.64
2024-01-20T00:44:14.727Z,51.39
2024-01-20T00:45:14.664Z,51.52
2024-01-20T00:46:14.655Z,51.46
2024-01-20T00:47:14.840Z,50.22
2024-01-20T00:48:14.790Z,53.43
2024-01-20T00:49:14.753Z,52.57
2024-01-20T00:50:14.689Z,52.15
2024-01-20T00:51:14.686Z,51.63
2024-01-20T00:52:14.670Z,51.96
2024-01-20T00:53:14.773Z,52.17
2024-01-20T00:54:14.741Z,52.67
2024-01-20T00:55:14.758Z,53.16
2024-01-20T00:56:14.836Z,51.40
2024-01-20T00:57:14.770Z,52.87
2024-01-20T00:58:14.788Z,52.09
2024-01-20T00:59:14.851Z,54.44
2024-01-20T01:00:14.847Z,52.94
2024-01-20T01:01:14.901Z,53.56
2024-01-20T01:02:14.884Z,52.77
2024-01-20T01:03:14.870Z,53.34
2024-01-20T01:04:14.888Z,54.09
2024-01-20T01:05:14.944Z,53.31
2024-01-20T01:06:14.924Z,52.68
2024-01-20T01:07:14.911Z,53.71
2024-01-20T01:08:15.053Z,52.75
2024-01-20T01:09:14.965Z,52.95
2024-01-20T01:10:14.965Z,53.92
2024-01-20T01:11:15.071Z,54.27
2024-01-20T01:12:14.989Z,53.49
2024-01-20T01:13:15.001Z,52.59
2024-01-20T01:14:15.236Z,53.89
2024-01-20T01:15:15.061Z,52.92
2024-01-20T01:16:15.083Z,54.15
2024-01-20T01:17:15.141Z,51.42
2024-01-20T01:18:15.179Z,54.41
2024-01-20T01:19:15.123Z,53.07
2024-01-20T01:20:15.212Z,52.87
2024-01-20T01:21:15.160Z,50.00
2024-01-20T01:22:15.171Z,52.78
2024-01-20T01:23:15.223Z,53.01
2024-01-20T01:24:15.251Z,51.12
2024-01-20T01:25:15.222Z,51.73
2024-01-20T01:26:15.266Z,53.93
2024-01-20T01:27:15.283Z,53.82
2024-01-20T01:28:15.289Z,53.42
2024-01-20T01:29:15.393Z,52.05
2024-01-20T01:30:15.331Z,51.95
2024-01-20T01:31:15.306Z,52.22
2024-01-20T01:32:15.394Z,51.71
2024-01-20T01:33:15.404Z,52.21
2024-01-20T01:34:15.472Z,52.06
2024-01-20T01:35:15.618Z,54.31
2024-01-20T01:36:15.442Z,52.95
2024-01-20T01:37:15.440Z,52.23
2024-01-20T01:38:15.553Z,52.26
2024-01-20T01:39:15.472Z,52.96
2024-01-20T01:40:15.506Z,52.79
2024-01-20T01:41:15.638Z,50.82
2024-01-20T01:42:15.533Z,50.00
2024-01-20T01:43:15.556Z,51.39
2024-01-20T01:44:15.594Z,55.03
2024-01-20T01:45:15.606Z,52.48
2024-01-20T01:46:15.629Z,53.33
2024-01-20T01:47:15.653Z,53.83
2024-01-20T01:48:15.769Z,53.92
2024-01-20T01:49:15.674Z,53.78
2024-01-20T01:50:15.699Z,53.33
2024-01-20T01:51:15.719Z,53.66
2024-01-20T01:52:15.765Z,54.70
2024-01-20T01:53:15.761Z,52.09
2024-01-20T01:54:15.837Z,53.25
2024-01-20T01:55:15.818Z,54.43
2024-01-20T01:56:15.843Z,52.96
2024-01-20T01:57:15.927Z,53.59
2024-01-20T01:58:15.906Z,53.03
2024-01-20T01:59:15.950Z,52.65
2024-01-20T02:00:15.949Z,53.73
2024-01-20T02:01:16.011Z,52.96
2024-01-20T02:02:16.085Z,54.23
2024-01-20T02:03:16.136Z,54.28
2024-01-20T02:04:16.124Z,53.91
2024-01-20T02:05:16.068Z,53.71
2024-01-20T02:06:16.139Z,54.42
2024-01-20T02:07:16.163Z,52.81
2024-01-20T02:08:16.245Z,50.14
2024-01-20T02:09:16.168Z,51.06
2024-01-20T02:10:16.207Z,51.57
2024-01-20T02:11:16.211Z,50.93
2024-01-20T02:12:16.297Z,52.98
2024-01-20T02:13:16.298Z,53.36
2024-01-20T02:14:16.304Z,52.22
2024-01-20T02:15:18.394Z,53.04
2024-01-20T02:16:16.357Z,52.93
2024-01-20T02:17:16.362Z,53.05
2024-01-20T02:18:16.474Z,51.35
2024-01-20T02:19:16.491Z,53.48
2024-01-20T02:20:16.433Z,52.87
2024-01-20T02:21:16.502Z,54.68
2024-01-20T02:22:16.501Z,52.24
2024-01-20T02:23:16.512Z,51.10
2024-01-20T02:24:16.603Z,52.67
2024-01-20T02:25:16.557Z,53.78
2024-01-20T02:26:16.579Z,53.22
2024-01-20T02:27:16.668Z,52.55
2024-01-20T02:28:16.597Z,52.83
2024-01-20T02:29:16.628Z,53.34
2024-01-20T02:30:16.694Z,51.85
2024-01-20T02:31:16.685Z,52.67
2024-01-20T02:32:16.724Z,54.04
2024-01-20T02:33:17.039Z,50.18
2024-01-20T02:34:16.906Z,53.67
2024-01-20T02:35:16.775Z,52.72
2024-01-20T02:36:16.846Z,51.12
2024-01-20T02:37:16.830Z,53.98
2024-01-20T02:38:16.853Z,53.48
2024-01-20T02:39:16.954Z,51.95
2024-01-20T02:40:16.938Z,53.65
2024-01-20T02:41:16.958Z,50.17
2024-01-20T02:42:17.045Z,52.99
2024-01-20T02:43:17.002Z,53.16
2024-01-20T02:44:17.071Z,52.93
2024-01-20T02:45:17.079Z,52.83
2024-01-20T02:46:17.126Z,53.21
2024-01-20T02:47:17.136Z,52.76
2024-01-20T02:48:19.099Z,53.33
2024-01-20T02:49:17.326Z,52.84
2024-01-20T02:50:17.220Z,52.87
2024-01-20T02:51:17.291Z,53.11
2024-01-20T02:52:17.317Z,53.48
2024-01-20T02:53:17.365Z,52.02
2024-01-20T02:54:17.419Z,53.32
2024-01-20T02:55:17.402Z,53.42
2024-01-20T02:56:17.429Z,53.92
2024-01-20T02:57:17.502Z,53.15
2024-01-20T02:58:17.482Z,53.49
2024-01-20T02:59:17.516Z,53.11
2024-01-20T03:00:17.586Z,50.81
2024-01-20T03:01:17.630Z,52.95
2024-01-20T03:02:17.602Z,51.35
2024-01-20T03:03:17.736Z,51.63
2024-01-20T03:04:17.728Z,52.61
2024-01-20T03:05:17.766Z,53.36
2024-01-20T03:06:17.783Z,51.58
2024-01-20T03:07:17.789Z,51.91
2024-01-20T03:08:17.809Z,52.66
2024-01-20T03:09:17.868Z,54.75
2024-01-20T03:10:17.896Z,52.47
2024-01-20T03:11:17.893Z,52.46
2024-01-20T03:12:17.905Z,52.27
2024-01-20T03:13:17.933Z,53.29
2024-01-20T03:14:17.999Z,52.70
2024-01-20T03:15:18.054Z,53.42
2024-01-20T03:16:18.050Z,51.86
2024-01-20T03:17:18.075Z,51.82
2024-01-20T03:18:18.191Z,52.63
2024-01-20T03:19:18.175Z,52.80
2024-01-20T03:20:18.145Z,53.29
2024-01-20T03:21:18.216Z,50.51
2024-01-20T03:22:18.220Z,54.08
2024-01-20T03:23:18.256Z,53.83
2024-01-20T03:24:18.307Z,52.37
2024-01-20T03:25:18.292Z,52.82
2024-01-20T03:26:18.321Z,53.30
2024-01-20T03:27:18.388Z,52.02
2024-01-20T03:28:18.380Z,51.06
2024-01-20T03:29:18.427Z,51.48
2024-01-20T03:30:18.497Z,52.71
2024-01-20T03:31:18.493Z,53.49
2024-01-20T03:32:18.558Z,52.43
2024-01-20T03:33:18.645Z,52.91
2024-01-20T03:34:18.654Z,53.90
2024-01-20T03:35:18.608Z,53.00
2024-01-20T03:36:18.715Z,52.08
2024-01-20T03:37:18.657Z,51.57
2024-01-20T03:38:18.722Z,54.72
2024-01-20T03:39:18.779Z,53.68
2024-01-20T03:40:18.757Z,53.51
2024-01-20T03:41:18.784Z,52.03
2024-01-20T03:42:18.898Z,53.64
2024-01-20T03:43:18.859Z,52.62
2024-01-20T03:44:18.907Z,54.21
2024-01-20T03:45:19.005Z,53.67
2024-01-20T03:46:18.946Z,52.42
2024-01-20T03:47:19.007Z,53.94
2024-01-20T03:48:19.177Z,54.45
2024-01-20T03:49:19.144Z,51.40
2024-01-20T03:50:19.300Z,50.00
2024-01-20T03:51:19.172Z,52.42
2024-01-20T03:52:19.159Z,53.31
2024-01-20T03:53:19.180Z,54.41
2024-01-20T03:54:19.251Z,53.85
2024-01-20T03:55:19.243Z,51.84
2024-01-20T03:56:19.299Z,52.83
2024-01-20T03:57:19.325Z,52.37
2024-01-20T03:58:19.325Z,54.13
2024-01-20T03:59:19.376Z,51.36
2024-01-20T04:00:19.467Z,51.69
2024-01-20T04:01:19.454Z,50.92
2024-01-20T04:02:19.488Z,50.96
2024-01-20T04:03:19.622Z,52.45
2024-01-20T04:04:19.573Z,51.96
2024-01-20T04:05:19.596Z,52.85
2024-01-20T04:06:19.652Z,51.75
2024-01-20T04:07:19.619Z,52.28
2024-01-20T04:08:19.674Z,51.68
2024-01-20T04:09:19.731Z,53.93
2024-01-20T04:10:19.722Z,51.90
2024-01-20T04:11:19.770Z,52.19
2024-01-20T04:12:19.809Z,53.66
2024-01-20T04:13:19.846Z,53.32
2024-01-20T04:14:19.845Z,54.35
2024-01-20T04:15:19.910Z,51.92
2024-01-20T04:16:19.929Z,51.57
2024-01-20T04:17:19.931Z,54.47
2024-01-20T04:18:27.270Z,50.00
2024-01-20T04:19:27.187Z,50.00
2024-01-20T04:20:27.111Z,50.00
2024-01-20T04:21:27.166Z,50.00
2024-01-20T04:22:27.124Z,50.00
2024-01-20T04:23:27.127Z,50.00
2024-01-20T04:24:27.156Z,51.89
2024-01-20T04:25:27.108Z,50.00
2024-01-20T04:26:27.116Z,54.06
2024-01-20T04:27:27.175Z,51.01
2024-01-20T04:28:27.139Z,50.25
2024-01-20T04:29:27.137Z,51.50
2024-01-20T04:30:27.173Z,50.74
2024-01-20T04:31:34.330Z,50.00
2024-01-20T04:32:34.333Z,50.00
2024-01-20T04:33:34.418Z,50.00
2024-01-20T04:34:34.349Z,50.00
2024-01-20T04:35:34.328Z,50.00
2024-01-20T04:36:34.378Z,50.51
2024-01-20T04:37:34.350Z,50.82
2024-01-20T04:38:34.309Z,50.94
2024-01-20T04:39:34.317Z,53.30
2024-01-20T04:40:34.314Z,52.21
2024-01-20T04:41:34.325Z,53.64
2024-01-20T04:42:34.402Z,51.54
2024-01-20T04:43:34.307Z,52.46
2024-01-20T04:44:34.303Z,51.20
2024-01-20T04:45:34.507Z,53.02
2024-01-20T04:46:34.305Z,50.46
2024-01-20T04:47:34.372Z,50.17
2024-01-20T04:48:34.473Z,52.80
2024-01-20T04:49:34.497Z,52.71
2024-01-20T04:50:34.351Z,52.50
2024-01-20T04:51:34.423Z,51.41
2024-01-20T04:52:34.339Z,51.21
2024-01-20T04:53:34.336Z,52.62
2024-01-20T04:54:34.413Z,50.70
2024-01-20T04:55:34.339Z,51.65
2024-01-20T04:56:34.363Z,52.49
2024-01-20T04:57:34.376Z,53.61
2024-01-20T04:58:34.356Z,54.12
2024-01-20T04:59:34.354Z,51.48
2024-01-20T05:00:34.387Z,53.59
2024-01-20T05:01:34.389Z,52.79
2024-01-20T05:02:34.318Z,52.24
2024-01-20T05:03:34.466Z,52.64
2024-01-20T05:04:34.553Z,51.21
2024-01-20T05:05:34.368Z,50.83
2024-01-20T05:06:34.426Z,52.70
2024-01-20T05:07:34.346Z,53.65
2024-01-20T05:08:34.342Z,55.80
2024-01-20T05:09:34.386Z,53.44
2024-01-20T05:10:34.339Z,53.77
2024-01-20T05:11:34.380Z,52.80
2024-01-20T05:12:34.439Z,53.05
2024-01-20T05:13:34.369Z,53.63
2024-01-20T05:14:34.385Z,53.26
2024-01-20T05:15:34.513Z,53.57
2024-01-20T05:16:34.393Z,52.97
2024-01-20T05:17:34.403Z,51.96
2024-01-20T05:18:34.545Z,52.16
2024-01-20T05:19:34.520Z,53.73
2024-01-20T05:20:34.484Z,50.03
2024-01-20T05:21:34.477Z,53.11
2024-01-20T05:22:34.379Z,52.19
2024-01-20T05:23:34.393Z,51.89
2024-01-20T05:24:34.503Z,54.04
2024-01-20T05:25:34.429Z,53.65
2024-01-20T05:26:34.503Z,51.60
2024-01-20T05:27:34.556Z,53.35
2024-01-20T05:28:34.622Z,51.77
2024-01-20T05:29:34.619Z,52.19
2024-01-20T05:30:34.640Z,51.38
2024-01-20T05:31:34.664Z,53.94
2024-01-20T05:32:34.725Z,52.50
2024-01-20T05:33:34.790Z,54.58
2024-01-20T05:34:34.985Z,54.35
2024-01-20T05:35:34.795Z,53.17
2024-01-20T05:36:34.896Z,53.67
2024-01-20T05:37:34.882Z,52.56
2024-01-20T05:38:34.927Z,52.37
2024-01-20T05:39:35.002Z,53.62
2024-01-20T05:40:34.975Z,53.57
2024-01-20T05:41:35.037Z,52.00
2024-01-20T05:42:35.152Z,52.25
2024-01-20T05:43:35.131Z,52.93
2024-01-20T05:44:35.124Z,55.11
2024-01-20T05:45:35.241Z,53.87
2024-01-20T05:46:35.206Z,53.56
2024-01-20T05:47:35.230Z,50.56
2024-01-20T05:48:35.398Z,52.39
2024-01-20T05:49:35.413Z,52.99
2024-01-20T05:50:35.340Z,53.38
2024-01-20T05:51:35.426Z,53.93
2024-01-20T05:52:35.404Z,52.39
2024-01-20T05:53:35.455Z,54.24
2024-01-20T05:54:35.639Z,52.75
2024-01-20T05:55:35.535Z,54.33
2024-01-20T05:56:35.566Z,53.36
2024-01-20T05:57:35.649Z,54.54
2024-01-20T05:58:35.627Z,51.85
2024-01-20T05:59:35.660Z,50.76
2024-01-20T06:00:35.760Z,53.62
2024-01-20T06:01:35.729Z,53.98
2024-01-20T06:02:35.795Z,54.08
2024-01-20T06:03:35.910Z,53.95
2024-01-20T06:04:35.868Z,52.04
2024-01-20T06:05:35.869Z,52.77
2024-01-20T06:06:35.907Z,51.28
2024-01-20T06:07:35.933Z,50.72
2024-01-20T06:08:35.964Z,52.12
2024-01-20T06:09:36.059Z,50.66
2024-01-20T06:10:36.070Z,51.86
2024-01-20T06:11:36.091Z,52.80
2024-01-20T06:12:36.154Z,55.16
2024-01-20T06:13:36.188Z,51.17
2024-01-20T06:14:36.216Z,52.97
2024-01-20T06:15:36.222Z,52.18
2024-01-20T06:16:36.247Z,55.33
2024-01-20T06:17:36.393Z,51.07
2024-01-20T06:18:36.386Z,52.21
2024-01-20T06:19:36.390Z,51.23
2024-01-20T06:20:36.412Z,53.78
2024-01-20T06:21:36.471Z,53.29
2024-01-20T06:22:36.454Z,53.31
2024-01-20T06:23:36.445Z,53.70
2024-01-20T06:24:36.451Z,53.29
2024-01-20T06:25:36.439Z,52.37
2024-01-20T06:26:36.454Z,55.43
2024-01-20T06:27:36.470Z,53.45
2024-01-20T06:28:36.462Z,54.20
2024-01-20T06:29:36.461Z,54.44
2024-01-20T06:30:36.570Z,54.03
2024-01-20T06:31:36.455Z,54.14
2024-01-20T06:32:36.494Z,52.51
2024-01-20T06:33:36.541Z,51.93
2024-01-20T06:34:36.553Z,53.84
2024-01-20T06:35:36.445Z,52.90
2024-01-20T06:36:36.514Z,53.47
2024-01-20T06:37:36.485Z,55.14
2024-01-20T06:38:36.485Z,54.78
2024-01-20T06:39:36.553Z,52.39
2024-01-20T06:40:36.535Z,52.66
2024-01-20T06:41:36.605Z,52.56
2024-01-20T06:42:36.744Z,52.12
2024-01-20T06:43:36.681Z,51.92
2024-01-20T06:44:36.695Z,52.27
2024-01-20T06:45:36.777Z,56.06
2024-01-20T06:46:36.758Z,54.21
2024-01-20T06:47:36.866Z,53.57
2024-01-20T06:48:36.913Z,54.14
2024-01-20T06:49:36.913Z,54.06
2024-01-20T06:50:36.883Z,54.88
2024-01-20T06:51:36.952Z,54.54
2024-01-20T06:52:36.975Z,53.89
2024-01-20T06:53:37.017Z,53.37
2024-01-20T06:54:37.071Z,54.84
2024-01-20T06:55:37.063Z,55.62
2024-01-20T06:56:37.122Z,54.80
2024-01-20T06:57:37.268Z,55.98
2024-01-20T06:58:37.158Z,53.99
2024-01-20T06:59:37.218Z,56.19
2024-01-20T07:00:37.396Z,54.18
2024-01-20T07:01:37.297Z,54.55
2024-01-20T07:02:37.334Z,52.12
2024-01-20T07:03:37.417Z,55.25
2024-01-20T07:04:37.420Z,54.29
2024-01-20T07:05:37.506Z,53.27
2024-01-20T07:06:37.493Z,54.70
2024-01-20T07:07:37.516Z,54.50
2024-01-20T07:08:37.569Z,56.91
2024-01-20T07:09:37.640Z,53.40
2024-01-20T07:10:37.638Z,54.12
2024-01-20T07:11:37.643Z,53.62
2024-01-20T07:12:37.905Z,52.04
2024-01-20T07:13:37.759Z,53.32
2024-01-20T07:14:37.769Z,52.75
2024-01-20T07:15:37.878Z,54.44
2024-01-20T07:16:37.834Z,52.72
2024-01-20T07:17:37.956Z,54.33
2024-01-20T07:18:38.030Z,55.88
2024-01-20T07:19:38.009Z,52.69
2024-01-20T07:20:38.005Z,54.69
2024-01-20T07:21:38.041Z,53.41
2024-01-20T07:22:38.536Z,52.34
2024-01-20T07:23:38.109Z,51.45
2024-01-20T07:24:38.166Z,52.50
2024-01-20T07:25:38.164Z,53.19
2024-01-20T07:26:38.229Z,54.08
2024-01-20T07:27:38.269Z,54.38
2024-01-20T07:28:38.280Z,51.63
2024-01-20T07:29:38.291Z,53.18
2024-01-20T07:30:38.349Z,53.63
2024-01-20T07:31:38.378Z,53.21
2024-01-20T07:32:38.409Z,52.77
2024-01-20T07:33:38.485Z,56.76
2024-01-20T07:34:38.536Z,52.81
2024-01-20T07:35:38.541Z,53.61
2024-01-20T07:36:38.705Z,52.22
2024-01-20T07:37:38.602Z,52.66
2024-01-20T07:38:38.616Z,53.39
2024-01-20T07:39:38.761Z,54.72
2024-01-20T07:40:38.677Z,52.18
2024-01-20T07:41:38.710Z,54.44
2024-01-20T07:42:38.767Z,52.90
2024-01-20T07:43:38.778Z,52.87
2024-01-20T07:44:38.828Z,54.29
2024-01-20T07:45:38.953Z,53.87
2024-01-20T07:46:38.885Z,53.04
2024-01-20T07:47:38.943Z,54.91
2024-01-20T07:48:39.047Z,53.92
2024-01-20T07:49:39.063Z,53.01
2024-01-20T07:50:39.006Z,55.10
2024-01-20T07:51:39.103Z,52.52
2024-01-20T07:52:40.813Z,53.72
2024-01-20T07:53:39.124Z,52.90
2024-01-20T07:54:39.278Z,52.45
2024-01-20T07:55:39.209Z,54.24
2024-01-20T07:56:39.225Z,53.71
2024-01-20T07:57:39.331Z,52.86
2024-01-20T07:58:39.315Z,54.21
2024-01-20T07:59:39.368Z,54.78
2024-01-20T08:00:39.548Z,52.37
2024-01-20T08:01:39.426Z,55.29
2024-01-20T08:02:39.469Z,51.87
2024-01-20T08:03:39.561Z,51.80
2024-01-20T08:04:39.594Z,54.26
2024-01-20T08:05:39.572Z,53.41
2024-01-20T08:06:39.768Z,54.42
2024-01-20T08:07:39.622Z,56.02
2024-01-20T08:08:39.656Z,54.10
2024-01-20T08:09:39.833Z,55.06
2024-01-20T08:10:39.715Z,52.38
2024-01-20T08:11:39.760Z,53.17
2024-01-20T08:12:39.769Z,52.88
2024-01-20T08:13:39.858Z,53.20
2024-01-20T08:14:39.841Z,53.58
2024-01-20T08:15:40.053Z,52.12
2024-01-20T08:16:39.939Z,52.79
2024-01-20T08:17:41.527Z,55.16
2024-01-20T08:18:40.122Z,54.14
2024-01-20T08:19:40.006Z,53.74
2024-01-20T08:20:39.970Z,53.22
2024-01-20T08:21:39.947Z,54.85
2024-01-20T08:22:39.979Z,55.24
2024-01-20T08:23:39.980Z,55.07
2024-01-20T08:24:39.995Z,53.52
2024-01-20T08:25:39.981Z,54.42
2024-01-20T08:26:39.939Z,54.45
2024-01-20T08:27:40.036Z,52.66
2024-01-20T08:28:39.955Z,52.29
2024-01-20T08:29:39.956Z,52.94
2024-01-20T08:30:40.086Z,51.13
2024-01-20T08:31:39.955Z,53.24
2024-01-20T08:32:40.061Z,52.79
2024-01-20T08:33:40.203Z,53.97
2024-01-20T08:34:40.047Z,52.00
2024-01-20T08:35:39.958Z,51.91
2024-01-20T08:36:40.018Z,51.37
2024-01-20T08:37:39.980Z,52.06
2024-01-20T08:38:39.959Z,50.60
2024-01-20T08:39:39.995Z,53.50
2024-01-20T08:40:39.978Z,53.10
2024-01-20T08:41:39.964Z,53.19
2024-01-20T08:42:40.005Z,52.67
2024-01-20T08:43:40.003Z,52.09
2024-01-20T08:44:39.973Z,51.47
2024-01-20T08:45:40.063Z,52.31
2024-01-20T08:46:39.977Z,51.61
2024-01-20T08:47:39.969Z,52.17
2024-01-20T08:48:40.126Z,54.53
2024-01-20T08:49:39.992Z,50.48
2024-01-20T08:50:39.992Z,50.58
2024-01-20T08:51:40.007Z,52.50
2024-01-20T08:52:40.034Z,53.39
2024-01-20T08:53:39.989Z,50.84
2024-01-20T08:54:40.105Z,50.07
2024-01-20T08:55:39.985Z,50.47
2024-01-20T08:56:40.024Z,53.57
2024-01-20T08:57:40.029Z,50.00
2024-01-20T08:58:40.044Z,50.16
2024-01-20T08:59:40.014Z,52.12
2024-01-20T09:00:40.032Z,51.95
2024-01-20T09:01:40.033Z,51.36
2024-01-20T09:02:40.065Z,51.41
2024-01-20T09:03:40.141Z,51.25
2024-01-20T09:04:40.002Z,50.49
2024-01-20T09:05:40.107Z,51.14
2024-01-20T09:06:40.071Z,52.50
2024-01-20T09:07:40.003Z,53.57
2024-01-20T09:08:40.031Z,51.30
2024-01-20T09:09:40.065Z,51.57
2024-01-20T09:10:40.024Z,51.65
2024-01-20T09:11:40.027Z,50.55
2024-01-20T09:12:40.078Z,52.60
2024-01-20T09:13:40.028Z,51.46
2024-01-20T09:14:40.035Z,51.67
2024-01-20T09:15:40.099Z,52.40
2024-01-20T09:16:40.042Z,50.60
2024-01-20T09:17:40.065Z,51.28
2024-01-20T09:18:40.297Z,51.97
2024-01-20T09:19:40.232Z,52.15
2024-01-20T09:20:40.191Z,51.74
2024-01-20T09:21:40.212Z,51.85
2024-01-20T09:22:40.202Z,52.26
2024-01-20T09:23:40.241Z,52.85
2024-01-20T09:24:40.447Z,53.22
2024-01-20T09:25:40.328Z,53.31
2024-01-20T09:26:40.347Z,54.02
2024-01-20T09:27:40.452Z,54.27
2024-01-20T09:28:40.431Z,54.72
2024-01-20T09:29:42.646Z,52.67
2024-01-20T09:30:40.630Z,53.35
2024-01-20T09:31:40.431Z,54.27
2024-01-20T09:32:40.468Z,53.89
2024-01-20T09:33:40.543Z,51.23
2024-01-20T09:34:40.505Z,53.76
2024-01-20T09:35:40.415Z,53.38
2024-01-20T09:36:40.490Z,52.58
2024-01-20T09:37:40.462Z,53.05
2024-01-20T09:38:40.416Z,52.01
2024-01-20T09:39:40.542Z,50.99
2024-01-20T09:40:40.436Z,52.21
2024-01-20T09:41:40.429Z,50.35
2024-01-20T09:42:40.585Z,53.07
2024-01-20T09:43:40.500Z,51.57
2024-01-20T09:44:40.408Z,53.45
2024-01-20T09:45:40.468Z,54.66
2024-01-20T09:46:40.424Z,53.46
2024-01-20T09:47:40.508Z,50.36
2024-01-20T09:48:40.599Z,51.17
2024-01-20T09:49:40.667Z,54.28
2024-01-20T09:50:40.423Z,50.63
2024-01-20T09:51:40.491Z,53.92
2024-01-20T09:52:40.410Z,52.83
2024-01-20T09:53:40.445Z,53.79
2024-01-20T09:54:40.512Z,53.63
2024-01-20T09:55:40.442Z,52.94
2024-01-20T09:56:40.449Z,51.56
2024-01-20T09:57:40.471Z,54.45
2024-01-20T09:58:40.434Z,52.72
2024-01-20T09:59:40.444Z,52.02
2024-01-20T10:00:40.445Z,50.38
2024-01-20T10:01:40.445Z,53.92
2024-01-20T10:02:40.401Z,54.49
2024-01-20T10:03:40.496Z,54.76
2024-01-20T10:04:40.526Z,51.67
2024-01-20T10:05:40.466Z,52.66
2024-01-20T10:06:40.565Z,51.09
2024-01-20T10:07:40.459Z,50.00
2024-01-20T10:08:40.451Z,54.23
2024-01-20T10:09:40.490Z,52.52
2024-01-20T10:10:40.463Z,51.70
2024-01-20T10:11:40.483Z,53.88
2024-01-20T10:12:40.470Z,51.96
2024-01-20T10:13:40.452Z,52.70
2024-01-20T10:14:40.460Z,54.01
2024-01-20T10:15:40.553Z,54.60
2024-01-20T10:16:40.410Z,53.62
2024-01-20T10:17:40.476Z,52.42
2024-01-20T10:18:40.463Z,52.61
2024-01-20T10:19:40.500Z,53.89
2024-01-20T10:20:40.432Z,53.20
2024-01-20T10:21:40.522Z,53.97
2024-01-20T10:22:40.436Z,53.50
2024-01-20T10:23:40.446Z,55.70
2024-01-20T10:24:40.484Z,53.64
2024-01-20T10:25:40.452Z,55.57
2024-01-20T10:26:40.442Z,55.12
2024-01-20T10:27:40.542Z,57.62
2024-01-20T10:28:40.447Z,55.59
2024-01-20T10:29:40.469Z,55.87
2024-01-20T10:30:40.565Z,54.21
2024-01-20T10:31:40.475Z,55.58
2024-01-20T10:33:40.583Z,56.27
2024-01-20T10:34:40.593Z,59.08
2024-01-20T10:35:40.540Z,57.50
2024-01-20T10:36:40.539Z,55.46
2024-01-20T10:37:40.475Z,56.73
2024-01-20T10:38:40.499Z,57.06
2024-01-20T10:39:40.513Z,58.17
2024-01-20T10:40:42.550Z,56.21
2024-01-20T10:41:40.476Z,56.31
2024-01-20T10:42:40.534Z,56.46
2024-01-20T10:43:40.549Z,56.73
2024-01-20T10:44:40.496Z,57.01
2024-01-20T10:45:40.507Z,58.64
2024-01-20T10:46:40.519Z,57.35
2024-01-20T10:47:40.555Z,56.93
2024-01-20T10:48:40.641Z,55.92
2024-01-20T10:49:40.787Z,55.80
2024-01-20T10:50:40.501Z,57.31
2024-01-20T10:51:40.599Z,58.82
2024-01-20T10:52:40.535Z,59.32
2024-01-20T10:53:40.501Z,58.54
2024-01-20T10:54:40.502Z,57.37
2024-01-20T10:55:40.534Z,57.77
2024-01-20T10:56:40.521Z,60.84
2024-01-20T10:57:40.527Z,57.97
2024-01-20T10:58:40.505Z,57.91
2024-01-20T10:59:40.542Z,58.01
2024-01-20T11:00:40.624Z,58.69
2024-01-20T11:01:40.512Z,58.56
2024-01-20T11:02:40.523Z,60.22
2024-01-20T11:03:40.603Z,57.94
2024-01-20T11:04:41.637Z,60.13
2024-01-20T11:05:40.546Z,60.04
2024-01-20T11:06:40.573Z,57.50
2024-01-20T11:07:40.531Z,58.52
2024-01-20T11:08:40.556Z,56.87
2024-01-20T11:09:40.560Z,57.25
2024-01-20T11:10:40.561Z,58.55
2024-01-20T11:11:40.618Z,61.62
2024-01-20T11:12:40.550Z,60.13
2024-01-20T11:13:40.534Z,60.62
2024-01-20T11:14:40.556Z,59.72
2024-01-20T11:15:40.666Z,60.28
2024-01-20T11:16:40.563Z,60.79
2024-01-20T11:17:40.619Z,59.90
2024-01-20T11:18:40.621Z,60.32
2024-01-20T11:19:40.631Z,59.93
2024-01-20T11:20:40.576Z,58.06
2024-01-20T11:21:40.814Z,58.15
2024-01-20T11:22:40.557Z,57.21
2024-01-20T11:23:40.580Z,58.40
2024-01-20T11:24:40.616Z,58.41
2024-01-20T11:25:40.565Z,57.80
2024-01-20T11:26:40.583Z,61.70
2024-01-20T11:27:40.620Z,60.26
2024-01-20T11:28:40.592Z,58.19
2024-01-20T11:29:40.579Z,57.39
2024-01-20T11:30:40.600Z,57.53
2024-01-20T11:31:40.581Z,58.40
2024-01-20T11:32:40.642Z,58.38
2024-01-20T11:33:40.660Z,59.37
2024-01-20T11:34:40.664Z,56.99
2024-01-20T11:35:40.622Z,60.04
2024-01-20T11:36:40.580Z,58.62
2024-01-20T11:37:40.562Z,57.76
2024-01-20T11:38:40.598Z,59.31
2024-01-20T11:39:40.705Z,58.96
2024-01-20T11:40:40.622Z,57.89
2024-01-20T11:41:40.606Z,58.59
2024-01-20T11:42:40.596Z,58.72
2024-01-20T11:43:40.578Z,59.28
2024-01-20T11:44:40.634Z,59.62
2024-01-20T11:45:40.643Z,59.62
2024-01-20T11:46:40.607Z,59.70
2024-01-20T11:47:40.681Z,60.16
2024-01-20T11:48:40.880Z,60.28
2024-01-20T11:49:40.869Z,61.82
2024-01-20T11:50:40.764Z,61.17
2024-01-20T11:51:40.816Z,60.96
2024-01-20T11:52:40.801Z,62.36
2024-01-20T11:53:40.840Z,61.06
2024-01-20T11:54:40.891Z,60.12
2024-01-20T11:55:41.015Z,61.15
2024-01-20T11:56:40.932Z,62.98
2024-01-20T11:57:41.068Z,63.21
2024-01-20T11:58:41.071Z,62.29
2024-01-20T11:59:41.129Z,61.08
2024-01-20T12:00:41.253Z,61.65
2024-01-20T12:01:41.274Z,61.18
2024-01-20T12:02:41.252Z,62.55
2024-01-20T12:03:41.381Z,61.89
2024-01-20T12:04:41.414Z,61.46
2024-01-20T12:05:41.645Z,62.43
2024-01-20T12:06:41.611Z,62.73
2024-01-20T12:07:41.575Z,61.28
2024-01-20T12:08:41.628Z,61.04
2024-01-20T12:09:41.779Z,62.75
2024-01-20T12:10:41.749Z,61.15
2024-01-20T12:11:41.842Z,61.53
2024-01-20T12:12:41.950Z,60.41
2024-01-20T12:13:41.967Z,63.56
2024-01-20T12:14:42.068Z,62.05
2024-01-20T12:15:42.134Z,61.12
2024-01-20T12:16:42.164Z,59.81
2024-01-20T12:17:42.356Z,59.58
2024-01-20T12:18:42.485Z,59.96
2024-01-20T12:19:42.759Z,59.54
2024-01-20T12:20:42.474Z,62.47
2024-01-20T12:21:42.556Z,61.76
2024-01-20T12:22:42.583Z,63.49
2024-01-20T12:23:42.655Z,61.17
2024-01-20T12:24:42.717Z,62.09
2024-01-20T12:25:42.800Z,60.88
2024-01-20T12:26:42.882Z,62.09
2024-01-20T12:27:42.958Z,61.77
2024-01-20T12:28:43.006Z,62.54
2024-01-20T12:29:43.078Z,62.94
2024-01-20T12:30:43.180Z,60.65
2024-01-20T12:31:43.208Z,62.28
2024-01-20T12:32:44.218Z,63.13
2024-01-20T12:33:43.477Z,62.80
2024-01-20T12:34:43.400Z,62.83
2024-01-20T12:35:43.465Z,62.44
2024-01-20T12:36:43.568Z,62.15
2024-01-20T12:37:43.658Z,62.28
2024-01-20T12:38:43.677Z,60.33
2024-01-20T12:39:43.737Z,62.25
2024-01-20T12:40:43.789Z,60.32
2024-01-20T12:41:43.877Z,60.52
2024-01-20T12:42:44.209Z,62.53
2024-01-20T12:43:44.006Z,59.81
2024-01-20T12:44:44.115Z,61.50
2024-01-20T12:45:44.171Z,61.92
2024-01-20T12:46:44.204Z,63.08
2024-01-20T12:47:44.311Z,59.46
2024-01-20T12:48:44.506Z,62.64
2024-01-20T12:49:44.467Z,63.42
2024-01-20T12:50:44.450Z,64.13
2024-01-20T12:51:44.553Z,60.85
2024-01-20T12:52:44.579Z,62.31
2024-01-20T12:53:44.640Z,61.51